sensor_id;sensor_type;location;lat;lon;timestamp;P1;durP1;ratioP1;P2;durP2;ratioP2
46006;SDS011;31738;50.188;8.524;2024-01-16T00:01:02;6.88;;;1.65;;
46006;SDS011;31738;50.188;8.524;2024-01-16T00:04:22;9.20;;;2.40;;
46006;SDS011;31738;50.188;8.524;2024-01-16T00:07:07;7.10;;;1.92;;
46006;SDS011;31738;50.188;8.524;2024-01-16T00:09:36;8.07;;;2.17;;
46006;SDS011;31738;50.188;8.524;2024-01-16T00:12:32;4.60;;;1.85;;
46006;SDS011;31738;50.188;8.524;2024-01-16T00:15:08;10.45;;;2.42;;
46006;SDS011;31738;50.188;8.524;2024-01-16T00:17:47;11.45;;;2.25;;
46006;SDS011;31738;50.188;8.524;2024-01-16T00:20:19;4.28;;;1.90;;
46006;SDS011;31738;50.188;8.524;2024-01-16T00:22:59;5.93;;;2.10;;
46006;SDS011;31738;50.188;8.524;2024-01-16T00:25:32;5.32;;;1.95;;
46006;SDS011;31738;50.188;8.524;2024-01-16T00:28:11;6.32;;;1.70;;
46006;SDS011;31738;50.188;8.524;2024-01-16T00:30:48;7.55;;;2.53;;
46006;SDS011;31738;50.188;8.524;2024-01-16T00:33:50;8.13;;;2.03;;
46006;SDS011;31738;50.188;8.524;2024-01-16T00:37:01;5.55;;;2.17;;
46006;SDS011;31738;50.188;8.524;2024-01-16T00:39:50;8.50;;;1.98;;
46006;SDS011;31738;50.188;8.524;2024-01-16T00:43:17;5.07;;;2.17;;
46006;SDS011;31738;50.188;8.524;2024-01-16T00:46:09;4.75;;;1.83;;
46006;SDS011;31738;50.188;8.524;2024-01-16T00:48:46;7.90;;;2.80;;
46006;SDS011;31738;50.188;8.524;2024-01-16T00:51:16;4.28;;;2.03;;
46006;SDS011;31738;50.188;8.524;2024-01-16T00:54:14;8.52;;;2.55;;
46006;SDS011;31738;50.188;8.524;2024-01-16T00:57:01;6.93;;;2.30;;
46006;SDS011;31738;50.188;8.524;2024-01-16T00:59:52;9.90;;;3.00;;
46006;SDS011;31738;50.188;8.524;2024-01-16T01:02:30;7.72;;;2.80;;
46006;SDS011;31738;50.188;8.524;2024-01-16T01:06:10;4.68;;;2.42;;
46006;SDS011;31738;50.188;8.524;2024-01-16T01:08:57;8.30;;;2.78;;
46006;SDS011;31738;50.188;8.524;2024-01-16T01:12:02;4.57;;;2.58;;
46006;SDS011;31738;50.188;8.524;2024-01-16T01:15:11;5.30;;;3.20;;
46006;SDS011;31738;50.188;8.524;2024-01-16T01:22:04;8.38;;;2.78;;
46006;SDS011;31738;50.188;8.524;2024-01-16T01:24:50;6.38;;;2.50;;
46006;SDS011;31738;50.188;8.524;2024-01-16T01:27:39;7.05;;;2.83;;
46006;SDS011;31738;50.188;8.524;2024-01-16T01:30:23;8.60;;;3.00;;
46006;SDS011;31738;50.188;8.524;2024-01-16T01:33:45;5.47;;;2.65;;
46006;SDS011;31738;50.188;8.524;2024-01-16T01:48:19;6.75;;;3.08;;
46006;SDS011;31738;50.188;8.524;2024-01-16T01:51:34;8.35;;;3.08;;
46006;SDS011;31738;50.188;8.524;2024-01-16T02:09:06;7.70;;;3.50;;
46006;SDS011;31738;50.188;8.524;2024-01-16T02:15:25;12.83;;;3.73;;
46006;SDS011;31738;50.188;8.524;2024-01-16T02:22:20;11.80;;;4.07;;
46006;SDS011;31738;50.188;8.524;2024-01-16T02:26:00;11.85;;;3.88;;
46006;SDS011;31738;50.188;8.524;2024-01-16T02:29:02;13.15;;;4.07;;
46006;SDS011;31738;50.188;8.524;2024-01-16T02:36:13;11.15;;;4.05;;
46006;SDS011;31738;50.188;8.524;2024-01-16T02:43:10;9.07;;;4.05;;
46006;SDS011;31738;50.188;8.524;2024-01-16T02:49:33;17.42;;;4.60;;
46006;SDS011;31738;50.188;8.524;2024-01-16T02:53:21;10.57;;;5.00;;
46006;SDS011;31738;50.188;8.524;2024-01-16T02:56:01;12.35;;;4.68;;
46006;SDS011;31738;50.188;8.524;2024-01-16T03:09:36;16.95;;;5.60;;
46006;SDS011;31738;50.188;8.524;2024-01-16T03:12:19;18.73;;;5.22;;
46006;SDS011;31738;50.188;8.524;2024-01-16T03:18:41;12.60;;;5.25;;
46006;SDS011;31738;50.188;8.524;2024-01-16T03:24:53;12.80;;;5.40;;
46006;SDS011;31738;50.188;8.524;2024-01-16T03:27:55;16.10;;;5.50;;
46006;SDS011;31738;50.188;8.524;2024-01-16T03:31:15;12.75;;;4.97;;
46006;SDS011;31738;50.188;8.524;2024-01-16T03:34:02;14.50;;;5.18;;
46006;SDS011;31738;50.188;8.524;2024-01-16T03:36:59;15.27;;;4.85;;
46006;SDS011;31738;50.188;8.524;2024-01-16T03:40:07;11.45;;;4.97;;
46006;SDS011;31738;50.188;8.524;2024-01-16T03:47:55;13.48;;;4.70;;
46006;SDS011;31738;50.188;8.524;2024-01-16T03:50:55;15.77;;;5.38;;
46006;SDS011;31738;50.188;8.524;2024-01-16T03:53:35;9.88;;;4.45;;
46006;SDS011;31738;50.188;8.524;2024-01-16T03:59:42;18.85;;;5.10;;
46006;SDS011;31738;50.188;8.524;2024-01-16T04:02:07;10.75;;;4.45;;
46006;SDS011;31738;50.188;8.524;2024-01-16T04:14:48;12.70;;;4.75;;
46006;SDS011;31738;50.188;8.524;2024-01-16T04:17:37;11.35;;;4.95;;
46006;SDS011;31738;50.188;8.524;2024-01-16T04:23:42;14.85;;;5.10;;
46006;SDS011;31738;50.188;8.524;2024-01-16T04:27:04;9.38;;;4.60;;
46006;SDS011;31738;50.188;8.524;2024-01-16T04:30:01;10.45;;;4.25;;
46006;SDS011;31738;50.188;8.524;2024-01-16T04:40:11;14.80;;;4.82;;
46006;SDS011;31738;50.188;8.524;2024-01-16T04:43:24;14.75;;;4.97;;
46006;SDS011;31738;50.188;8.524;2024-01-16T04:47:13;11.15;;;4.55;;
46006;SDS011;31738;50.188;8.524;2024-01-16T04:50:49;12.27;;;4.47;;
46006;SDS011;31738;50.188;8.524;2024-01-16T04:57:29;13.05;;;4.47;;
46006;SDS011;31738;50.188;8.524;2024-01-16T05:00:59;13.80;;;4.53;;
46006;SDS011;31738;50.188;8.524;2024-01-16T05:03:47;12.15;;;4.28;;
46006;SDS011;31738;50.188;8.524;2024-01-16T05:07:22;13.20;;;4.90;;
46006;SDS011;31738;50.188;8.524;2024-01-16T05:13:53;12.30;;;4.18;;
46006;SDS011;31738;50.188;8.524;2024-01-16T05:16:36;15.48;;;4.32;;
46006;SDS011;31738;50.188;8.524;2024-01-16T05:19:59;12.70;;;4.28;;
46006;SDS011;31738;50.188;8.524;2024-01-16T05:23:52;11.82;;;4.22;;
46006;SDS011;31738;50.188;8.524;2024-01-16T05:27:46;12.23;;;4.90;;
46006;SDS011;31738;50.188;8.524;2024-01-16T05:30:19;13.30;;;4.97;;
46006;SDS011;31738;50.188;8.524;2024-01-16T05:51:05;11.75;;;4.40;;
46006;SDS011;31738;50.188;8.524;2024-01-16T06:00:53;9.95;;;4.40;;
46006;SDS011;31738;50.188;8.524;2024-01-16T06:15:11;14.15;;;4.38;;
46006;SDS011;31738;50.188;8.524;2024-01-16T06:18:34;12.77;;;5.05;;
46006;SDS011;31738;50.188;8.524;2024-01-16T06:25:02;13.63;;;3.67;;
46006;SDS011;31738;50.188;8.524;2024-01-16T06:27:50;10.57;;;3.90;;
46006;SDS011;31738;50.188;8.524;2024-01-16T06:30:18;19.60;;;5.25;;
46006;SDS011;31738;50.188;8.524;2024-01-16T06:32:47;11.82;;;3.78;;
46006;SDS011;31738;50.188;8.524;2024-01-16T06:35:15;11.68;;;4.32;;
46006;SDS011;31738;50.188;8.524;2024-01-16T06:40:48;10.40;;;3.92;;
46006;SDS011;31738;50.188;8.524;2024-01-16T06:46:34;10.13;;;4.35;;
46006;SDS011;31738;50.188;8.524;2024-01-16T06:49:28;10.57;;;3.55;;
46006;SDS011;31738;50.188;8.524;2024-01-16T06:52:02;10.38;;;4.15;;
46006;SDS011;31738;50.188;8.524;2024-01-16T06:54:28;8.38;;;3.92;;
46006;SDS011;31738;50.188;8.524;2024-01-16T06:56:54;13.85;;;3.97;;
46006;SDS011;31738;50.188;8.524;2024-01-16T06:59:43;8.82;;;3.47;;
46006;SDS011;31738;50.188;8.524;2024-01-16T07:02:12;14.05;;;3.95;;
46006;SDS011;31738;50.188;8.524;2024-01-16T07:04:40;12.45;;;3.42;;
46006;SDS011;31738;50.188;8.524;2024-01-16T07:09:47;10.43;;;2.97;;
46006;SDS011;31738;50.188;8.524;2024-01-16T07:13:15;7.30;;;3.15;;
46006;SDS011;31738;50.188;8.524;2024-01-16T07:16:14;9.40;;;3.40;;
46006;SDS011;31738;50.188;8.524;2024-01-16T07:19:25;18.43;;;3.63;;
46006;SDS011;31738;50.188;8.524;2024-01-16T07:25:24;7.07;;;3.25;;
46006;SDS011;31738;50.188;8.524;2024-01-16T07:28:18;8.50;;;3.42;;
46006;SDS011;31738;50.188;8.524;2024-01-16T07:34:22;8.20;;;2.60;;
46006;SDS011;31738;50.188;8.524;2024-01-16T07:37:11;11.88;;;3.63;;
46006;SDS011;31738;50.188;8.524;2024-01-16T07:39:52;11.90;;;3.13;;
46006;SDS011;31738;50.188;8.524;2024-01-16T07:42:24;11.68;;;4.38;;
46006;SDS011;31738;50.188;8.524;2024-01-16T07:45:08;12.75;;;4.50;;
46006;SDS011;31738;50.188;8.524;2024-01-16T07:48:04;12.65;;;4.50;;
46006;SDS011;31738;50.188;8.524;2024-01-16T07:51:14;10.65;;;4.85;;
46006;SDS011;31738;50.188;8.524;2024-01-16T07:54:10;16.90;;;4.93;;
46006;SDS011;31738;50.188;8.524;2024-01-16T07:56:52;9.85;;;4.55;;
46006;SDS011;31738;50.188;8.524;2024-01-16T07:59:23;16.02;;;5.00;;
46006;SDS011;31738;50.188;8.524;2024-01-16T08:01:50;25.30;;;6.18;;
46006;SDS011;31738;50.188;8.524;2024-01-16T08:04:22;13.07;;;5.50;;
46006;SDS011;31738;50.188;8.524;2024-01-16T08:07:17;14.55;;;5.57;;
46006;SDS011;31738;50.188;8.524;2024-01-16T08:09:49;17.52;;;5.40;;
46006;SDS011;31738;50.188;8.524;2024-01-16T08:13:00;13.32;;;5.18;;
46006;SDS011;31738;50.188;8.524;2024-01-16T08:16:05;13.80;;;5.43;;
46006;SDS011;31738;50.188;8.524;2024-01-16T08:22:23;17.40;;;6.40;;
46006;SDS011;31738;50.188;8.524;2024-01-16T08:28:54;17.08;;;7.03;;
46006;SDS011;31738;50.188;8.524;2024-01-16T08:31:36;16.77;;;5.35;;
46006;SDS011;31738;50.188;8.524;2024-01-16T08:34:56;12.88;;;6.55;;
46006;SDS011;31738;50.188;8.524;2024-01-16T08:38:12;13.68;;;5.93;;
46006;SDS011;31738;50.188;8.524;2024-01-16T08:41:00;13.95;;;7.13;;
46006;SDS011;31738;50.188;8.524;2024-01-16T08:43:30;17.60;;;6.18;;
46006;SDS011;31738;50.188;8.524;2024-01-16T08:46:14;14.93;;;5.95;;
46006;SDS011;31738;50.188;8.524;2024-01-16T08:48:53;13.75;;;5.80;;
46006;SDS011;31738;50.188;8.524;2024-01-16T08:54:44;13.73;;;6.00;;
46006;SDS011;31738;50.188;8.524;2024-01-16T08:57:39;11.85;;;5.13;;
46006;SDS011;31738;50.188;8.524;2024-01-16T09:00:25;16.58;;;6.05;;
46006;SDS011;31738;50.188;8.524;2024-01-16T09:03:39;14.10;;;6.22;;
46006;SDS011;31738;50.188;8.524;2024-01-16T09:07:08;16.52;;;5.55;;
46006;SDS011;31738;50.188;8.524;2024-01-16T09:09:59;14.45;;;4.65;;
46006;SDS011;31738;50.188;8.524;2024-01-16T09:12:37;12.93;;;5.30;;
46006;SDS011;31738;50.188;8.524;2024-01-16T09:15:25;9.65;;;3.97;;
46006;SDS011;31738;50.188;8.524;2024-01-16T09:18:00;9.65;;;3.65;;
46006;SDS011;31738;50.188;8.524;2024-01-16T09:20:31;8.05;;;3.70;;
46006;SDS011;31738;50.188;8.524;2024-01-16T09:23:09;7.50;;;3.05;;
46006;SDS011;31738;50.188;8.524;2024-01-16T09:26:05;10.93;;;3.47;;
46006;SDS011;31738;50.188;8.524;2024-01-16T09:28:33;8.05;;;3.45;;
46006;SDS011;31738;50.188;8.524;2024-01-16T09:31:06;11.50;;;4.18;;
46006;SDS011;31738;50.188;8.524;2024-01-16T09:33:54;15.15;;;3.90;;
46006;SDS011;31738;50.188;8.524;2024-01-16T09:36:33;14.98;;;6.57;;
46006;SDS011;31738;50.188;8.524;2024-01-16T09:39:17;12.82;;;4.97;;
46006;SDS011;31738;50.188;8.524;2024-01-16T09:41:52;16.58;;;6.05;;
46006;SDS011;31738;50.188;8.524;2024-01-16T09:44:48;14.32;;;6.57;;
46006;SDS011;31738;50.188;8.524;2024-01-16T09:47:48;13.38;;;5.30;;
46006;SDS011;31738;50.188;8.524;2024-01-16T09:50:30;15.40;;;5.93;;
46006;SDS011;31738;50.188;8.524;2024-01-16T09:53:16;11.48;;;5.00;;
46006;SDS011;31738;50.188;8.524;2024-01-16T09:55:58;15.00;;;4.63;;
46006;SDS011;31738;50.188;8.524;2024-01-16T09:58:53;7.03;;;3.67;;
46006;SDS011;31738;50.188;8.524;2024-01-16T10:01:55;12.50;;;4.55;;
46006;SDS011;31738;50.188;8.524;2024-01-16T10:05:03;15.50;;;5.43;;
46006;SDS011;31738;50.188;8.524;2024-01-16T10:08:36;14.65;;;5.43;;
46006;SDS011;31738;50.188;8.524;2024-01-16T10:11:25;14.63;;;6.68;;
46006;SDS011;31738;50.188;8.524;2024-01-16T10:14:07;20.80;;;7.22;;
46006;SDS011;31738;50.188;8.524;2024-01-16T10:23:30;17.20;;;6.40;;
46006;SDS011;31738;50.188;8.524;2024-01-16T10:26:29;18.65;;;6.50;;
46006;SDS011;31738;50.188;8.524;2024-01-16T10:29:55;16.35;;;6.82;;
46006;SDS011;31738;50.188;8.524;2024-01-16T10:32:50;12.43;;;7.07;;
46006;SDS011;31738;50.188;8.524;2024-01-16T10:35:49;13.82;;;6.47;;
46006;SDS011;31738;50.188;8.524;2024-01-16T10:38:30;17.30;;;7.07;;
46006;SDS011;31738;50.188;8.524;2024-01-16T10:49:13;15.80;;;6.97;;
46006;SDS011;31738;50.188;8.524;2024-01-16T10:56:55;17.38;;;7.00;;
46006;SDS011;31738;50.188;8.524;2024-01-16T11:07:48;15.73;;;6.95;;
46006;SDS011;31738;50.188;8.524;2024-01-16T11:18:23;16.00;;;6.45;;
46006;SDS011;31738;50.188;8.524;2024-01-16T11:22:03;22.38;;;6.57;;
46006;SDS011;31738;50.188;8.524;2024-01-16T11:32:40;15.50;;;6.50;;
46006;SDS011;31738;50.188;8.524;2024-01-16T11:36:00;18.17;;;6.80;;
46006;SDS011;31738;50.188;8.524;2024-01-16T11:45:47;13.57;;;5.82;;
46006;SDS011;31738;50.188;8.524;2024-01-16T11:48:40;20.90;;;6.88;;
46006;SDS011;31738;50.188;8.524;2024-01-16T11:51:24;14.75;;;6.00;;
46006;SDS011;31738;50.188;8.524;2024-01-16T11:54:11;16.60;;;6.15;;
46006;SDS011;31738;50.188;8.524;2024-01-16T11:57:01;14.63;;;6.30;;
46006;SDS011;31738;50.188;8.524;2024-01-16T12:00:17;20.10;;;6.55;;
46006;SDS011;31738;50.188;8.524;2024-01-16T12:03:32;12.27;;;5.38;;
46006;SDS011;31738;50.188;8.524;2024-01-16T12:10:35;12.88;;;5.55;;
46006;SDS011;31738;50.188;8.524;2024-01-16T12:14:22;18.30;;;6.20;;
46006;SDS011;31738;50.188;8.524;2024-01-16T12:21:44;17.02;;;6.97;;
46006;SDS011;31738;50.188;8.524;2024-01-16T12:24:41;18.48;;;6.15;;
46006;SDS011;31738;50.188;8.524;2024-01-16T12:27:31;17.10;;;7.05;;
46006;SDS011;31738;50.188;8.524;2024-01-16T12:30:17;16.38;;;6.20;;
46006;SDS011;31738;50.188;8.524;2024-01-16T12:40:57;14.38;;;6.32;;
46006;SDS011;31738;50.188;8.524;2024-01-16T13:07:07;12.00;;;4.97;;
46006;SDS011;31738;50.188;8.524;2024-01-16T13:10:21;11.88;;;4.32;;
46006;SDS011;31738;50.188;8.524;2024-01-16T13:12:47;10.40;;;5.10;;
46006;SDS011;31738;50.188;8.524;2024-01-16T13:15:18;12.57;;;5.15;;
46006;SDS011;31738;50.188;8.524;2024-01-16T13:17:48;10.98;;;4.65;;
46006;SDS011;31738;50.188;8.524;2024-01-16T13:20:13;13.23;;;4.47;;
46006;SDS011;31738;50.188;8.524;2024-01-16T13:22:41;10.10;;;4.68;;
46006;SDS011;31738;50.188;8.524;2024-01-16T13:25:11;12.88;;;4.43;;
46006;SDS011;31738;50.188;8.524;2024-01-16T13:27:43;6.65;;;3.92;;
46006;SDS011;31738;50.188;8.524;2024-01-16T13:30:27;9.40;;;4.15;;
46006;SDS011;31738;50.188;8.524;2024-01-16T13:32:58;11.18;;;4.60;;
46006;SDS011;31738;50.188;8.524;2024-01-16T13:35:24;14.52;;;4.55;;
46006;SDS011;31738;50.188;8.524;2024-01-16T13:37:58;12.48;;;4.70;;
46006;SDS011;31738;50.188;8.524;2024-01-16T13:40:23;12.77;;;4.70;;
46006;SDS011;31738;50.188;8.524;2024-01-16T13:42:49;12.50;;;4.28;;
46006;SDS011;31738;50.188;8.524;2024-01-16T13:45:15;14.48;;;4.00;;
46006;SDS011;31738;50.188;8.524;2024-01-16T13:47:42;14.40;;;3.97;;
46006;SDS011;31738;50.188;8.524;2024-01-16T13:50:10;16.95;;;4.72;;
46006;SDS011;31738;50.188;8.524;2024-01-16T13:52:36;8.65;;;4.13;;
46006;SDS011;31738;50.188;8.524;2024-01-16T13:55:04;12.20;;;4.78;;
46006;SDS011;31738;50.188;8.524;2024-01-16T13:57:33;12.98;;;4.38;;
46006;SDS011;31738;50.188;8.524;2024-01-16T14:00:06;12.10;;;4.90;;
46006;SDS011;31738;50.188;8.524;2024-01-16T14:02:49;12.73;;;4.68;;
46006;SDS011;31738;50.188;8.524;2024-01-16T14:05:18;16.45;;;5.13;;
46006;SDS011;31738;50.188;8.524;2024-01-16T14:07:47;13.20;;;4.97;;
46006;SDS011;31738;50.188;8.524;2024-01-16T14:10:20;7.97;;;4.43;;
46006;SDS011;31738;50.188;8.524;2024-01-16T14:12:56;13.60;;;5.00;;
46006;SDS011;31738;50.188;8.524;2024-01-16T14:15:22;11.20;;;5.03;;
46006;SDS011;31738;50.188;8.524;2024-01-16T14:17:51;13.43;;;5.28;;
46006;SDS011;31738;50.188;8.524;2024-01-16T14:20:24;13.60;;;4.80;;
46006;SDS011;31738;50.188;8.524;2024-01-16T14:25:41;11.13;;;5.10;;
46006;SDS011;31738;50.188;8.524;2024-01-16T14:28:08;17.90;;;5.93;;
46006;SDS011;31738;50.188;8.524;2024-01-16T14:30:40;19.85;;;5.65;;
46006;SDS011;31738;50.188;8.524;2024-01-16T14:33:14;12.65;;;5.18;;
46006;SDS011;31738;50.188;8.524;2024-01-16T14:35:40;16.38;;;5.97;;
46006;SDS011;31738;50.188;8.524;2024-01-16T14:38:11;11.93;;;6.00;;
46006;SDS011;31738;50.188;8.524;2024-01-16T14:40:45;19.15;;;6.20;;
46006;SDS011;31738;50.188;8.524;2024-01-16T14:43:26;15.43;;;5.82;;
46006;SDS011;31738;50.188;8.524;2024-01-16T14:45:52;12.80;;;5.47;;
46006;SDS011;31738;50.188;8.524;2024-01-16T14:48:20;15.55;;;5.80;;
46006;SDS011;31738;50.188;8.524;2024-01-16T14:50:57;19.60;;;6.28;;
46006;SDS011;31738;50.188;8.524;2024-01-16T14:53:22;13.05;;;6.03;;
46006;SDS011;31738;50.188;8.524;2024-01-16T14:55:52;16.83;;;6.57;;
46006;SDS011;31738;50.188;8.524;2024-01-16T14:58:20;16.35;;;6.53;;
46006;SDS011;31738;50.188;8.524;2024-01-16T15:00:52;18.38;;;6.78;;
46006;SDS011;31738;50.188;8.524;2024-01-16T15:03:25;12.98;;;6.10;;
46006;SDS011;31738;50.188;8.524;2024-01-16T15:05:53;15.40;;;6.18;;
46006;SDS011;31738;50.188;8.524;2024-01-16T15:08:24;18.33;;;7.30;;
46006;SDS011;31738;50.188;8.524;2024-01-16T15:10:58;16.63;;;7.15;;
46006;SDS011;31738;50.188;8.524;2024-01-16T15:13:43;21.98;;;7.25;;
46006;SDS011;31738;50.188;8.524;2024-01-16T15:16:18;17.73;;;6.47;;
46006;SDS011;31738;50.188;8.524;2024-01-16T15:18:53;20.20;;;6.32;;
46006;SDS011;31738;50.188;8.524;2024-01-16T15:21:22;16.95;;;5.55;;
46006;SDS011;31738;50.188;8.524;2024-01-16T15:23:52;15.32;;;5.70;;
46006;SDS011;31738;50.188;8.524;2024-01-16T15:26:19;12.57;;;5.10;;
46006;SDS011;31738;50.188;8.524;2024-01-16T15:28:50;16.45;;;6.13;;
46006;SDS011;31738;50.188;8.524;2024-01-16T15:31:26;18.38;;;6.10;;
46006;SDS011;31738;50.188;8.524;2024-01-16T15:33:56;18.85;;;6.07;;
46006;SDS011;31738;50.188;8.524;2024-01-16T15:36:29;14.93;;;6.20;;
46006;SDS011;31738;50.188;8.524;2024-01-16T15:39:18;16.33;;;5.93;;
46006;SDS011;31738;50.188;8.524;2024-01-16T15:45:03;15.38;;;6.65;;
46006;SDS011;31738;50.188;8.524;2024-01-16T15:47:30;19.45;;;6.63;;
46006;SDS011;31738;50.188;8.524;2024-01-16T15:50:08;15.15;;;5.53;;
46006;SDS011;31738;50.188;8.524;2024-01-16T15:52:40;15.32;;;6.07;;
46006;SDS011;31738;50.188;8.524;2024-01-16T15:55:25;19.38;;;5.60;;
46006;SDS011;31738;50.188;8.524;2024-01-16T15:58:00;17.45;;;5.68;;
46006;SDS011;31738;50.188;8.524;2024-01-16T16:00:37;15.32;;;6.43;;
46006;SDS011;31738;50.188;8.524;2024-01-16T16:06:40;21.25;;;5.82;;
46006;SDS011;31738;50.188;8.524;2024-01-16T16:16:10;20.42;;;5.97;;
46006;SDS011;31738;50.188;8.524;2024-01-16T16:19:10;17.15;;;5.68;;
46006;SDS011;31738;50.188;8.524;2024-01-16T16:28:28;24.20;;;5.47;;
46006;SDS011;31738;50.188;8.524;2024-01-16T16:31:02;16.75;;;5.10;;
46006;SDS011;31738;50.188;8.524;2024-01-16T16:37:32;16.35;;;5.65;;
46006;SDS011;31738;50.188;8.524;2024-01-16T16:40:36;10.00;;;4.70;;
46006;SDS011;31738;50.188;8.524;2024-01-16T16:43:50;16.95;;;6.60;;
46006;SDS011;31738;50.188;8.524;2024-01-16T16:46:24;18.85;;;6.05;;
46006;SDS011;31738;50.188;8.524;2024-01-16T16:49:04;15.65;;;6.13;;
46006;SDS011;31738;50.188;8.524;2024-01-16T16:51:32;15.07;;;5.90;;
46006;SDS011;31738;50.188;8.524;2024-01-16T16:54:11;15.25;;;5.82;;
46006;SDS011;31738;50.188;8.524;2024-01-16T16:56:43;17.67;;;6.30;;
46006;SDS011;31738;50.188;8.524;2024-01-16T16:59:10;19.98;;;6.88;;
46006;SDS011;31738;50.188;8.524;2024-01-16T17:01:43;14.70;;;6.10;;
46006;SDS011;31738;50.188;8.524;2024-01-16T17:04:13;18.58;;;6.65;;
46006;SDS011;31738;50.188;8.524;2024-01-16T17:06:43;18.80;;;6.43;;
46006;SDS011;31738;50.188;8.524;2024-01-16T17:09:12;12.88;;;6.45;;
46006;SDS011;31738;50.188;8.524;2024-01-16T17:11:47;18.65;;;6.88;;
46006;SDS011;31738;50.188;8.524;2024-01-16T17:14:13;13.95;;;5.68;;
46006;SDS011;31738;50.188;8.524;2024-01-16T17:20:08;17.20;;;5.32;;
46006;SDS011;31738;50.188;8.524;2024-01-16T17:22:50;20.08;;;6.03;;
46006;SDS011;31738;50.188;8.524;2024-01-16T17:25:35;17.95;;;6.30;;
46006;SDS011;31738;50.188;8.524;2024-01-16T17:37:10;23.88;;;9.88;;
46006;SDS011;31738;50.188;8.524;2024-01-16T17:44:11;38.45;;;12.95;;
46006;SDS011;31738;50.188;8.524;2024-01-16T17:56:19;13.40;;;4.85;;
46006;SDS011;31738;50.188;8.524;2024-01-16T18:03:24;19.33;;;6.13;;
46006;SDS011;31738;50.188;8.524;2024-01-16T18:17:22;16.00;;;5.38;;
46006;SDS011;31738;50.188;8.524;2024-01-16T18:24:45;14.60;;;5.63;;
46006;SDS011;31738;50.188;8.524;2024-01-16T18:27:58;12.45;;;5.47;;
46006;SDS011;31738;50.188;8.524;2024-01-16T18:30:56;15.57;;;5.70;;
46006;SDS011;31738;50.188;8.524;2024-01-16T18:40:18;11.30;;;4.38;;
46006;SDS011;31738;50.188;8.524;2024-01-16T18:50:17;12.88;;;5.07;;
46006;SDS011;31738;50.188;8.524;2024-01-16T18:53:15;15.48;;;5.07;;
46006;SDS011;31738;50.188;8.524;2024-01-16T18:56:25;12.35;;;4.78;;
46006;SDS011;31738;50.188;8.524;2024-01-16T18:59:20;11.88;;;5.03;;
46006;SDS011;31738;50.188;8.524;2024-01-16T19:02:12;9.60;;;4.53;;
46006;SDS011;31738;50.188;8.524;2024-01-16T19:04:49;15.40;;;5.90;;
46006;SDS011;31738;50.188;8.524;2024-01-16T19:07:31;17.80;;;5.53;;
46006;SDS011;31738;50.188;8.524;2024-01-16T19:37:42;19.33;;;6.13;;
46006;SDS011;31738;50.188;8.524;2024-01-16T19:45:03;11.73;;;5.32;;
46006;SDS011;31738;50.188;8.524;2024-01-16T19:48:48;12.60;;;5.45;;
46006;SDS011;31738;50.188;8.524;2024-01-16T19:55:56;49.00;;;13.52;;
46006;SDS011;31738;50.188;8.524;2024-01-16T20:14:45;35.78;;;12.88;;
46006;SDS011;31738;50.188;8.524;2024-01-16T20:42:08;17.85;;;7.35;;
46006;SDS011;31738;50.188;8.524;2024-01-16T20:45:20;12.23;;;5.28;;
46006;SDS011;31738;50.188;8.524;2024-01-16T20:48:40;20.15;;;5.00;;
46006;SDS011;31738;50.188;8.524;2024-01-16T20:52:54;12.70;;;5.80;;
46006;SDS011;31738;50.188;8.524;2024-01-16T20:56:33;19.33;;;5.95;;
46006;SDS011;31738;50.188;8.524;2024-01-16T20:59:19;20.60;;;6.63;;
46006;SDS011;31738;50.188;8.524;2024-01-16T21:02:18;19.30;;;7.05;;
46006;SDS011;31738;50.188;8.524;2024-01-16T21:05:17;16.10;;;5.63;;
46006;SDS011;31738;50.188;8.524;2024-01-16T21:12:12;16.73;;;7.28;;
46006;SDS011;31738;50.188;8.524;2024-01-16T21:15:06;15.25;;;6.13;;
46006;SDS011;31738;50.188;8.524;2024-01-16T21:18:22;16.30;;;5.47;;
46006;SDS011;31738;50.188;8.524;2024-01-16T21:21:31;10.00;;;4.82;;
46006;SDS011;31738;50.188;8.524;2024-01-16T21:25:09;10.43;;;4.70;;
46006;SDS011;31738;50.188;8.524;2024-01-16T21:27:54;11.38;;;4.50;;
46006;SDS011;31738;50.188;8.524;2024-01-16T21:32:21;14.57;;;3.78;;
46006;SDS011;31738;50.188;8.524;2024-01-16T21:35:55;9.82;;;4.25;;
46006;SDS011;31738;50.188;8.524;2024-01-16T21:39:00;18.13;;;6.47;;
46006;SDS011;31738;50.188;8.524;2024-01-16T21:49:28;12.65;;;5.50;;
46006;SDS011;31738;50.188;8.524;2024-01-16T21:52:33;11.10;;;5.57;;
46006;SDS011;31738;50.188;8.524;2024-01-16T21:55:45;11.18;;;4.45;;
46006;SDS011;31738;50.188;8.524;2024-01-16T21:59:16;12.30;;;4.55;;
46006;SDS011;31738;50.188;8.524;2024-01-16T22:01:54;11.32;;;4.43;;
46006;SDS011;31738;50.188;8.524;2024-01-16T22:08:16;12.35;;;6.57;;
46006;SDS011;31738;50.188;8.524;2024-01-16T22:17:50;8.52;;;4.07;;
46006;SDS011;31738;50.188;8.524;2024-01-16T22:28:34;10.50;;;3.45;;
46006;SDS011;31738;50.188;8.524;2024-01-16T22:32:27;5.82;;;2.90;;
46006;SDS011;31738;50.188;8.524;2024-01-16T22:38:38;5.60;;;2.30;;
46006;SDS011;31738;50.188;8.524;2024-01-16T22:45:42;7.03;;;3.47;;
46006;SDS011;31738;50.188;8.524;2024-01-16T22:53:15;10.50;;;3.35;;
46006;SDS011;31738;50.188;8.524;2024-01-16T22:59:15;8.02;;;3.05;;
46006;SDS011;31738;50.188;8.524;2024-01-16T23:07:01;9.40;;;2.85;;
46006;SDS011;31738;50.188;8.524;2024-01-16T23:10:07;8.85;;;2.80;;
46006;SDS011;31738;50.188;8.524;2024-01-16T23:16:14;8.65;;;3.85;;
46006;SDS011;31738;50.188;8.524;2024-01-16T23:19:05;9.02;;;3.53;;
46006;SDS011;31738;50.188;8.524;2024-01-16T23:24:58;12.43;;;4.60;;
46006;SDS011;31738;50.188;8.524;2024-01-16T23:28:12;13.23;;;4.30;;
46006;SDS011;31738;50.188;8.524;2024-01-16T23:31:15;9.48;;;4.50;;
46006;SDS011;31738;50.188;8.524;2024-01-16T23:34:12;18.58;;;4.68;;
46006;SDS011;31738;50.188;8.524;2024-01-16T23:37:40;10.90;;;4.05;;
46006;SDS011;31738;50.188;8.524;2024-01-16T23:40:27;11.05;;;4.28;;
46006;SDS011;31738;50.188;8.524;2024-01-16T23:43:52;9.80;;;3.88;;
46006;SDS011;31738;50.188;8.524;2024-01-16T23:47:03;15.13;;;4.30;;
46006;SDS011;31738;50.188;8.524;2024-01-16T23:50:02;11.77;;;5.05;;
46006;SDS011;31738;50.188;8.524;2024-01-16T23:52:57;13.75;;;4.25;;
46006;SDS011;31738;50.188;8.524;2024-01-16T23:55:50;13.15;;;4.30;;
46006;SDS011;31738;50.188;8.524;2024-01-16T23:58:58;8.27;;;4.25;;
